sensor_id;sensor_type;location;lat;lon;timestamp;pressure;altitude;pressure_sealevel;temperature;humidity
64739;BME280;51175;51.186;0.276;2023-04-08T00:00:01;102045.09;;;14.88;63.46
64739;BME280;51175;51.186;0.276;2023-04-08T00:00:31;102049.59;;;14.88;63.28
64739;BME280;51175;51.186;0.276;2023-04-08T00:01:02;102040.84;;;14.87;63.28
64739;BME280;51175;51.186;0.276;2023-04-08T00:01:32;102045.34;;;14.87;63.40
64739;BME280;51175;51.186;0.276;2023-04-08T00:02:03;102045.34;;;14.87;63.51
64739;BME280;51175;51.186;0.276;2023-04-08T00:02:33;102050.66;;;14.87;63.50
64739;BME280;51175;51.186;0.276;2023-04-08T00:03:03;102042.69;;;14.87;63.68
64739;BME280;51175;51.186;0.276;2023-04-08T00:03:34;102045.34;;;14.87;63.33
64739;BME280;51175;51.186;0.276;2023-04-08T00:04:04;102041.88;;;14.86;63.40
64739;BME280;51175;51.186;0.276;2023-04-08T00:04:35;102052.50;;;14.86;63.79
64739;BME280;51175;51.186;0.276;2023-04-08T00:05:05;102040.28;;;14.85;63.25
64739;BME280;51175;51.186;0.276;2023-04-08T00:05:36;102044.78;;;14.85;63.40
64739;BME280;51175;51.186;0.276;2023-04-08T00:06:06;102040.53;;;14.84;62.93
64739;BME280;51175;51.186;0.276;2023-04-08T00:06:37;102054.63;;;14.84;63.32
64739;BME280;51175;51.186;0.276;2023-04-08T00:07:08;102045.84;;;14.84;63.49
64739;BME280;51175;51.186;0.276;2023-04-08T00:07:38;102047.69;;;14.83;63.10
64739;BME280;51175;51.186;0.276;2023-04-08T00:08:08;102047.69;;;14.83;63.25
64739;BME280;51175;51.186;0.276;2023-04-08T00:08:39;102050.34;;;14.83;63.27
64739;BME280;51175;51.186;0.276;2023-04-08T00:09:09;102048.50;;;14.84;63.71
64739;BME280;51175;51.186;0.276;2023-04-08T00:09:39;102051.41;;;14.82;63.24
64739;BME280;51175;51.186;0.276;2023-04-08T00:10:10;102041.84;;;14.81;63.50
64739;BME280;51175;51.186;0.276;2023-04-08T00:10:40;102047.16;;;14.81;63.61
64739;BME280;51175;51.186;0.276;2023-04-08T00:11:11;102042.88;;;14.80;63.12
64739;BME280;51175;51.186;0.276;2023-04-08T00:11:41;102048.19;;;14.80;63.34
64739;BME280;51175;51.186;0.276;2023-04-08T00:12:12;102054.31;;;14.81;63.49
64739;BME280;51175;51.186;0.276;2023-04-08T00:12:42;102048.19;;;14.80;63.62
64739;BME280;51175;51.186;0.276;2023-04-08T00:13:12;102049.25;;;14.79;63.50
64739;BME280;51175;51.186;0.276;2023-04-08T00:13:43;102043.94;;;14.79;63.50
64739;BME280;51175;51.186;0.276;2023-04-08T00:14:15;102043.09;;;14.78;63.33
64739;BME280;51175;51.186;0.276;2023-04-08T00:14:45;102045.75;;;14.78;63.46
64739;BME280;51175;51.186;0.276;2023-04-08T00:15:15;102051.06;;;14.78;63.55
64739;BME280;51175;51.186;0.276;2023-04-08T00:15:46;102044.97;;;14.78;63.34
64739;BME280;51175;51.186;0.276;2023-04-08T00:16:16;102044.16;;;14.77;63.62
64739;BME280;51175;51.186;0.276;2023-04-08T00:16:46;102044.97;;;14.78;63.41
64739;BME280;51175;51.186;0.276;2023-04-08T00:17:17;102055.59;;;14.78;63.37
64739;BME280;51175;51.186;0.276;2023-04-08T00:17:47;102048.66;;;14.77;63.27
64739;BME280;51175;51.186;0.276;2023-04-08T00:18:17;102046.00;;;14.77;63.30
64739;BME280;51175;51.186;0.276;2023-04-08T00:18:48;102045.22;;;14.76;63.50
64739;BME280;51175;51.186;0.276;2023-04-08T00:19:18;102044.41;;;14.76;63.27
64739;BME280;51175;51.186;0.276;2023-04-08T00:19:49;102045.22;;;14.76;63.22
64739;BME280;51175;51.186;0.276;2023-04-08T00:20:22;102046.25;;;14.75;63.38
64739;BME280;51175;51.186;0.276;2023-04-08T00:20:53;102040.16;;;14.75;63.22
64739;BME280;51175;51.186;0.276;2023-04-08T00:21:23;102047.31;;;14.74;63.46
64739;BME280;51175;51.186;0.276;2023-04-08T00:21:54;102046.50;;;14.74;63.44
64739;BME280;51175;51.186;0.276;2023-04-08T00:22:24;102043.06;;;14.73;63.62
64739;BME280;51175;51.186;0.276;2023-04-08T00:22:55;102043.84;;;14.74;63.43
64739;BME280;51175;51.186;0.276;2023-04-08T00:23:25;102048.38;;;14.73;63.44
64739;BME280;51175;51.186;0.276;2023-04-08T00:23:55;102050.22;;;14.73;63.34
64739;BME280;51175;51.186;0.276;2023-04-08T00:24:26;102044.09;;;14.72;63.49
64739;BME280;51175;51.186;0.276;2023-04-08T00:24:57;102046.75;;;14.72;63.34
64739;BME280;51175;51.186;0.276;2023-04-08T00:25:27;102041.69;;;14.71;63.28
64739;BME280;51175;51.186;0.276;2023-04-08T00:25:58;102048.63;;;14.72;63.13
64739;BME280;51175;51.186;0.276;2023-04-08T00:26:28;102045.97;;;14.72;63.48
64739;BME280;51175;51.186;0.276;2023-04-08T00:26:58;102050.47;;;14.71;63.41
64739;BME280;51175;51.186;0.276;2023-04-08T00:27:29;102042.75;;;14.70;63.52
64739;BME280;51175;51.186;0.276;2023-04-08T00:27:59;102048.88;;;14.70;63.52
64739;BME280;51175;51.186;0.276;2023-04-08T00:28:29;102047.00;;;14.71;63.55
64739;BME280;51175;51.186;0.276;2023-04-08T00:29:00;102051.53;;;14.70;63.64
64739;BME280;51175;51.186;0.276;2023-04-08T00:29:30;102046.22;;;14.70;63.49
64739;BME280;51175;51.186;0.276;2023-04-08T00:30:01;102041.16;;;14.69;63.43
64739;BME280;51175;51.186;0.276;2023-04-08T00:30:32;102041.16;;;14.69;63.50
64739;BME280;51175;51.186;0.276;2023-04-08T00:31:03;102046.47;;;14.69;63.36
64739;BME280;51175;51.186;0.276;2023-04-08T00:31:33;102042.19;;;14.68;63.39
64739;BME280;51175;51.186;0.276;2023-04-08T00:32:04;102045.66;;;14.68;63.32
64739;BME280;51175;51.186;0.276;2023-04-08T00:32:34;102042.19;;;14.68;63.33
64739;BME280;51175;51.186;0.276;2023-04-08T00:33:05;102043.25;;;14.67;63.44
64739;BME280;51175;51.186;0.276;2023-04-08T00:33:36;102036.88;;;14.68;63.35
64739;BME280;51175;51.186;0.276;2023-04-08T00:34:06;102037.94;;;14.67;63.35
64739;BME280;51175;51.186;0.276;2023-04-08T00:34:36;102040.59;;;14.67;63.27
64739;BME280;51175;51.186;0.276;2023-04-08T00:35:07;102042.44;;;14.66;63.28
64739;BME280;51175;51.186;0.276;2023-04-08T00:35:38;102033.66;;;14.65;63.42
64739;BME280;51175;51.186;0.276;2023-04-08T00:36:08;102039.78;;;14.66;63.49
64739;BME280;51175;51.186;0.276;2023-04-08T00:36:39;102036.31;;;14.65;63.29
64739;BME280;51175;51.186;0.276;2023-04-08T00:37:09;102039.22;;;14.64;63.41
64739;BME280;51175;51.186;0.276;2023-04-08T00:37:39;102046.16;;;14.65;63.37
64739;BME280;51175;51.186;0.276;2023-04-08T00:38:10;102038.44;;;14.63;63.50
64739;BME280;51175;51.186;0.276;2023-04-08T00:38:41;102038.44;;;14.63;63.56
64739;BME280;51175;51.186;0.276;2023-04-08T00:39:13;102036.81;;;14.62;63.43
64739;BME280;51175;51.186;0.276;2023-04-08T00:39:43;102042.13;;;14.62;63.48
64739;BME280;51175;51.186;0.276;2023-04-08T00:40:13;102037.63;;;14.63;63.49
64739;BME280;51175;51.186;0.276;2023-04-08T00:40:44;102036.81;;;14.62;63.53
64739;BME280;51175;51.186;0.276;2023-04-08T00:41:14;102037.84;;;14.61;63.50
64739;BME280;51175;51.186;0.276;2023-04-08T00:41:45;102034.38;;;14.61;63.63
64739;BME280;51175;51.186;0.276;2023-04-08T00:42:16;102032.53;;;14.61;63.56
64739;BME280;51175;51.186;0.276;2023-04-08T00:42:46;102043.19;;;14.61;63.34
64739;BME280;51175;51.186;0.276;2023-04-08T00:43:16;102037.06;;;14.61;63.32
64739;BME280;51175;51.186;0.276;2023-04-08T00:43:51;102038.09;;;14.60;63.22
64739;BME280;51175;51.186;0.276;2023-04-08T00:44:21;102035.44;;;14.60;63.55
64739;BME280;51175;51.186;0.276;2023-04-08T00:44:51;102042.63;;;14.59;63.45
64739;BME280;51175;51.186;0.276;2023-04-08T00:45:22;102035.69;;;14.58;63.21
64739;BME280;51175;51.186;0.276;2023-04-08T00:45:52;102039.16;;;14.59;63.76
64739;BME280;51175;51.186;0.276;2023-04-08T00:46:23;102037.28;;;14.59;63.47
64739;BME280;51175;51.186;0.276;2023-04-08T00:46:53;102036.75;;;14.57;63.49
64739;BME280;51175;51.186;0.276;2023-04-08T00:47:24;102034.88;;;14.58;63.40
64739;BME280;51175;51.186;0.276;2023-04-08T00:47:55;102045.53;;;14.58;63.64
64739;BME280;51175;51.186;0.276;2023-04-08T00:48:25;102041.25;;;14.57;63.48
64739;BME280;51175;51.186;0.276;2023-04-08T00:48:56;102038.59;;;14.57;63.40
64739;BME280;51175;51.186;0.276;2023-04-08T00:49:26;102041.25;;;14.57;63.47
64739;BME280;51175;51.186;0.276;2023-04-08T00:49:57;102040.44;;;14.56;63.60
64739;BME280;51175;51.186;0.276;2023-04-08T00:50:27;102036.19;;;14.55;63.46
64739;BME280;51175;51.186;0.276;2023-04-08T00:50:58;102037.00;;;14.56;63.42
64739;BME280;51175;51.186;0.276;2023-04-08T00:51:29;102045.00;;;14.56;63.30
64739;BME280;51175;51.186;0.276;2023-04-08T00:52:00;102038.84;;;14.55;63.64
64739;BME280;51175;51.186;0.276;2023-04-08T00:52:30;102043.34;;;14.55;63.61
64739;BME280;51175;51.186;0.276;2023-04-08T00:53:01;102037.25;;;14.54;63.63
64739;BME280;51175;51.186;0.276;2023-04-08T00:53:31;102040.94;;;14.53;63.40
64739;BME280;51175;51.186;0.276;2023-04-08T00:54:04;102034.59;;;14.54;63.40
64739;BME280;51175;51.186;0.276;2023-04-08T00:54:35;102039.91;;;14.54;63.70
64739;BME280;51175;51.186;0.276;2023-04-08T00:55:06;102040.16;;;14.52;63.64
64739;BME280;51175;51.186;0.276;2023-04-08T00:55:36;102039.09;;;14.53;63.40
64739;BME280;51175;51.186;0.276;2023-04-08T00:56:07;102044.66;;;14.52;63.25
64739;BME280;51175;51.186;0.276;2023-04-08T00:56:37;102050.00;;;14.52;63.39
64739;BME280;51175;51.186;0.276;2023-04-08T00:57:08;102046.50;;;14.51;63.47
64739;BME280;51175;51.186;0.276;2023-04-08T00:57:38;102043.84;;;14.51;63.53
64739;BME280;51175;51.186;0.276;2023-04-08T00:58:09;102051.03;;;14.51;63.28
64739;BME280;51175;51.186;0.276;2023-04-08T00:58:40;102047.56;;;14.50;63.53
64739;BME280;51175;51.186;0.276;2023-04-08T00:59:11;102045.72;;;14.51;63.32
64739;BME280;51175;51.186;0.276;2023-04-08T00:59:41;102050.22;;;14.50;63.33
64739;BME280;51175;51.186;0.276;2023-04-08T01:00:12;102045.16;;;14.49;63.42
64739;BME280;51175;51.186;0.276;2023-04-08T01:00:59;102049.41;;;14.50;63.44
64739;BME280;51175;51.186;0.276;2023-04-08T01:04:04;102047.22;;;14.42;63.34
64739;BME280;51175;51.186;0.276;2023-04-08T01:06:53;102054.06;;;14.37;63.85
64739;BME280;51175;51.186;0.276;2023-04-08T01:07:59;102042.88;;;14.35;63.71
64739;BME280;51175;51.186;0.276;2023-04-08T01:08:32;102044.72;;;14.35;63.53
64739;BME280;51175;51.186;0.276;2023-04-08T01:09:05;102050.06;;;14.35;63.75
64739;BME280;51175;51.186;0.276;2023-04-08T01:09:38;102047.38;;;14.35;63.72
64739;BME280;51175;51.186;0.276;2023-04-08T01:10:16;102044.72;;;14.35;63.76
64739;BME280;51175;51.186;0.276;2023-04-08T01:10:50;102049.00;;;14.36;63.58
64739;BME280;51175;51.186;0.276;2023-04-08T01:11:23;102046.34;;;14.36;63.85
64739;BME280;51175;51.186;0.276;2023-04-08T01:11:55;102050.06;;;14.35;63.46
64739;BME280;51175;51.186;0.276;2023-04-08T01:12:28;102045.53;;;14.35;63.72
64739;BME280;51175;51.186;0.276;2023-04-08T01:13:04;102048.22;;;14.35;63.65
64739;BME280;51175;51.186;0.276;2023-04-08T01:13:39;102048.22;;;14.35;63.53
64739;BME280;51175;51.186;0.276;2023-04-08T01:14:14;102050.88;;;14.35;63.70
64739;BME280;51175;51.186;0.276;2023-04-08T01:14:46;102047.38;;;14.35;63.58
64739;BME280;51175;51.186;0.276;2023-04-08T01:15:19;102047.38;;;14.35;63.70
64739;BME280;51175;51.186;0.276;2023-04-08T01:15:50;102041.25;;;14.34;63.70
64739;BME280;51175;51.186;0.276;2023-04-08T01:16:21;102043.91;;;14.34;63.82
64739;BME280;51175;51.186;0.276;2023-04-08T01:16:57;102046.59;;;14.34;63.93
64739;BME280;51175;51.186;0.276;2023-04-08T01:17:31;102043.91;;;14.34;63.57
64739;BME280;51175;51.186;0.276;2023-04-08T01:18:06;102039.66;;;14.33;63.61
64739;BME280;51175;51.186;0.276;2023-04-08T01:18:37;102036.19;;;14.33;63.53
64739;BME280;51175;51.186;0.276;2023-04-08T01:19:16;102042.31;;;14.33;63.92
64739;BME280;51175;51.186;0.276;2023-04-08T01:19:51;102044.16;;;14.33;63.55
64739;BME280;51175;51.186;0.276;2023-04-08T01:20:25;102044.97;;;14.33;63.68
64739;BME280;51175;51.186;0.276;2023-04-08T01:20:57;102041.50;;;14.33;63.49
64739;BME280;51175;51.186;0.276;2023-04-08T01:21:28;102053.78;;;14.34;63.72
64739;BME280;51175;51.186;0.276;2023-04-08T01:22:31;102048.66;;;14.32;63.73
64739;BME280;51175;51.186;0.276;2023-04-08T01:24:22;102042.25;;;14.28;63.67
64739;BME280;51175;51.186;0.276;2023-04-08T01:25:00;102044.09;;;14.27;63.48
64739;BME280;51175;51.186;0.276;2023-04-08T01:25:33;102043.31;;;14.27;63.66
64739;BME280;51175;51.186;0.276;2023-04-08T01:26:04;102038.25;;;14.25;63.70
64739;BME280;51175;51.186;0.276;2023-04-08T01:26:35;102039.84;;;14.26;63.80
64739;BME280;51175;51.186;0.276;2023-04-08T01:27:06;102036.38;;;14.26;63.63
64739;BME280;51175;51.186;0.276;2023-04-08T01:27:39;102040.66;;;14.27;63.82
64739;BME280;51175;51.186;0.276;2023-04-08T01:28:14;102038.00;;;14.27;63.87
64739;BME280;51175;51.186;0.276;2023-04-08T01:28:48;102042.50;;;14.26;63.81
64739;BME280;51175;51.186;0.276;2023-04-08T01:29:19;102039.03;;;14.26;63.69
64739;BME280;51175;51.186;0.276;2023-04-08T01:29:51;102040.66;;;14.27;63.60
64739;BME280;51175;51.186;0.276;2023-04-08T01:30:22;102042.50;;;14.26;63.77
64739;BME280;51175;51.186;0.276;2023-04-08T01:30:56;102033.97;;;14.24;63.73
64739;BME280;51175;51.186;0.276;2023-04-08T01:31:27;102042.50;;;14.26;63.63
64739;BME280;51175;51.186;0.276;2023-04-08T01:31:58;102037.19;;;14.26;63.68
64739;BME280;51175;51.186;0.276;2023-04-08T01:32:31;102037.44;;;14.25;63.72
64739;BME280;51175;51.186;0.276;2023-04-08T01:33:02;102037.44;;;14.25;63.63
64739;BME280;51175;51.186;0.276;2023-04-08T01:33:35;102038.25;;;14.25;63.62
64739;BME280;51175;51.186;0.276;2023-04-08T01:34:06;102038.25;;;14.25;63.41
64739;BME280;51175;51.186;0.276;2023-04-08T01:34:38;102043.56;;;14.25;63.75
64739;BME280;51175;51.186;0.276;2023-04-08T01:35:09;102038.25;;;14.25;63.68
64739;BME280;51175;51.186;0.276;2023-04-08T01:35:40;102045.97;;;14.27;63.64
64739;BME280;51175;51.186;0.276;2023-04-08T01:36:11;102040.09;;;14.25;63.69
64739;BME280;51175;51.186;0.276;2023-04-08T01:36:43;102040.91;;;14.25;63.54
64739;BME280;51175;51.186;0.276;2023-04-08T01:37:15;102036.63;;;14.24;63.63
64739;BME280;51175;51.186;0.276;2023-04-08T01:37:49;102036.63;;;14.24;63.70
64739;BME280;51175;51.186;0.276;2023-04-08T01:38:22;102045.41;;;14.25;63.50
64739;BME280;51175;51.186;0.276;2023-04-08T01:38:55;102037.44;;;14.25;63.40
64739;BME280;51175;51.186;0.276;2023-04-08T01:39:26;102038.50;;;14.24;63.40
64739;BME280;51175;51.186;0.276;2023-04-08T01:39:57;102038.50;;;14.24;63.70
64739;BME280;51175;51.186;0.276;2023-04-08T01:40:30;102047.50;;;14.23;63.44
64739;BME280;51175;51.186;0.276;2023-04-08T01:41:02;102038.72;;;14.22;63.56
64739;BME280;51175;51.186;0.276;2023-04-08T01:41:34;102035.03;;;14.23;63.41
64739;BME280;51175;51.186;0.276;2023-04-08T01:42:06;102040.34;;;14.23;63.68
64739;BME280;51175;51.186;0.276;2023-04-08T01:42:38;102035.03;;;14.23;63.53
64739;BME280;51175;51.186;0.276;2023-04-08T01:43:09;102034.19;;;14.23;63.70
64739;BME280;51175;51.186;0.276;2023-04-08T01:43:43;102036.06;;;14.22;63.42
64739;BME280;51175;51.186;0.276;2023-04-08T01:44:14;102034.19;;;14.23;63.42
64739;BME280;51175;51.186;0.276;2023-04-08T01:44:46;102036.84;;;14.23;63.55
64739;BME280;51175;51.186;0.276;2023-04-08T01:45:17;102039.50;;;14.23;63.57
64739;BME280;51175;51.186;0.276;2023-04-08T01:45:48;102032.59;;;14.22;63.37
64739;BME280;51175;51.186;0.276;2023-04-08T01:46:23;102035.25;;;14.22;63.61
64739;BME280;51175;51.186;0.276;2023-04-08T01:46:55;102031.78;;;14.21;63.65
64739;BME280;51175;51.186;0.276;2023-04-08T01:47:26;102036.31;;;14.21;63.52
64739;BME280;51175;51.186;0.276;2023-04-08T01:47:59;102037.34;;;14.20;63.68
64739;BME280;51175;51.186;0.276;2023-04-08T01:48:30;102032.84;;;14.20;63.46
64739;BME280;51175;51.186;0.276;2023-04-08T01:49:01;102038.16;;;14.20;63.46
64739;BME280;51175;51.186;0.276;2023-04-08T01:49:32;102028.59;;;14.19;63.41
64739;BME280;51175;51.186;0.276;2023-04-08T01:50:03;102032.03;;;14.20;63.40
64739;BME280;51175;51.186;0.276;2023-04-08T01:50:35;102041.06;;;14.19;63.46
64739;BME280;51175;51.186;0.276;2023-04-08T01:51:08;102025.13;;;14.19;63.51
64739;BME280;51175;51.186;0.276;2023-04-08T01:51:38;102031.25;;;14.19;63.44
64739;BME280;51175;51.186;0.276;2023-04-08T01:52:10;102034.94;;;14.18;63.32
64739;BME280;51175;51.186;0.276;2023-04-08T01:52:47;102039.22;;;14.19;63.61
64739;BME280;51175;51.186;0.276;2023-04-08T01:53:18;102038.41;;;14.19;63.45
64739;BME280;51175;51.186;0.276;2023-04-08T01:53:48;102037.59;;;14.18;63.47
64739;BME280;51175;51.186;0.276;2023-04-08T01:54:19;102036.56;;;14.19;63.62
64739;BME280;51175;51.186;0.276;2023-04-08T01:54:50;102041.88;;;14.19;63.24
64739;BME280;51175;51.186;0.276;2023-04-08T01:55:21;102039.47;;;14.18;63.43
64739;BME280;51175;51.186;0.276;2023-04-08T01:55:57;102030.69;;;14.17;63.38
64739;BME280;51175;51.186;0.276;2023-04-08T01:56:32;102031.50;;;14.18;63.45
64739;BME280;51175;51.186;0.276;2023-04-08T01:57:07;102034.41;;;14.16;63.53
64739;BME280;51175;51.186;0.276;2023-04-08T01:57:43;102033.59;;;14.15;63.38
64739;BME280;51175;51.186;0.276;2023-04-08T01:58:20;102033.59;;;14.15;63.41
64739;BME280;51175;51.186;0.276;2023-04-08T01:58:53;102035.44;;;14.15;63.41
64739;BME280;51175;51.186;0.276;2023-04-08T01:59:28;102026.69;;;14.14;63.41
64739;BME280;51175;51.186;0.276;2023-04-08T02:00:05;102029.34;;;14.14;63.55
64739;BME280;51175;51.186;0.276;2023-04-08T02:00:38;102033.84;;;14.14;63.62
64739;BME280;51175;51.186;0.276;2023-04-08T02:01:11;102035.69;;;14.13;63.33
64739;BME280;51175;51.186;0.276;2023-04-08T02:01:43;102021.63;;;14.13;63.32
64739;BME280;51175;51.186;0.276;2023-04-08T02:02:15;102030.38;;;14.13;63.48
64739;BME280;51175;51.186;0.276;2023-04-08T02:02:46;102026.94;;;14.13;63.63
64739;BME280;51175;51.186;0.276;2023-04-08T02:03:19;102024.50;;;14.11;63.42
64739;BME280;51175;51.186;0.276;2023-04-08T02:03:54;102017.31;;;14.12;63.64
64739;BME280;51175;51.186;0.276;2023-04-08T02:04:26;102019.97;;;14.12;63.45
64739;BME280;51175;51.186;0.276;2023-04-08T02:04:57;102021.03;;;14.11;63.44
64739;BME280;51175;51.186;0.276;2023-04-08T02:05:27;102021.03;;;14.11;63.31
64739;BME280;51175;51.186;0.276;2023-04-08T02:05:58;102020.22;;;14.10;63.48
64739;BME280;51175;51.186;0.276;2023-04-08T02:06:29;102022.09;;;14.10;63.51
64739;BME280;51175;51.186;0.276;2023-04-08T02:07:00;102019.44;;;14.10;63.65
64739;BME280;51175;51.186;0.276;2023-04-08T02:07:31;102022.09;;;14.10;63.49
64739;BME280;51175;51.186;0.276;2023-04-08T02:08:02;102022.09;;;14.10;63.46
64739;BME280;51175;51.186;0.276;2023-04-08T02:08:33;102022.09;;;14.10;63.40
64739;BME280;51175;51.186;0.276;2023-04-08T02:09:05;102024.75;;;14.10;63.41
64739;BME280;51175;51.186;0.276;2023-04-08T02:09:36;102022.09;;;14.10;63.36
64739;BME280;51175;51.186;0.276;2023-04-08T02:10:07;102018.63;;;14.09;63.26
64739;BME280;51175;51.186;0.276;2023-04-08T02:10:37;102024.75;;;14.10;63.51
64739;BME280;51175;51.186;0.276;2023-04-08T02:11:08;102021.28;;;14.09;63.91
64739;BME280;51175;51.186;0.276;2023-04-08T02:11:39;102017.81;;;14.09;63.46
64739;BME280;51175;51.186;0.276;2023-04-08T02:12:09;102022.34;;;14.08;63.23
64739;BME280;51175;51.186;0.276;2023-04-08T02:12:41;102033.75;;;14.09;63.44
64739;BME280;51175;51.186;0.276;2023-04-08T02:13:13;102030.31;;;14.08;63.43
64739;BME280;51175;51.186;0.276;2023-04-08T02:13:43;102027.66;;;14.08;63.26
64739;BME280;51175;51.186;0.276;2023-04-08T02:14:14;102030.31;;;14.08;63.33
64739;BME280;51175;51.186;0.276;2023-04-08T02:14:44;102029.50;;;14.08;63.32
64739;BME280;51175;51.186;0.276;2023-04-08T02:15:15;102035.63;;;14.08;63.40
64739;BME280;51175;51.186;0.276;2023-04-08T02:15:51;102032.16;;;14.08;63.28
64739;BME280;51175;51.186;0.276;2023-04-08T02:17:08;102033.47;;;14.05;63.26
64739;BME280;51175;51.186;0.276;2023-04-08T02:17:45;102033.47;;;14.05;63.59
64739;BME280;51175;51.186;0.276;2023-04-08T02:18:21;102025.50;;;14.05;63.52
64739;BME280;51175;51.186;0.276;2023-04-08T02:19:01;102028.16;;;14.05;63.28
64739;BME280;51175;51.186;0.276;2023-04-08T02:19:45;102031.84;;;14.04;63.44
64739;BME280;51175;51.186;0.276;2023-04-08T02:20:22;102028.66;;;14.02;63.42
64739;BME280;51175;51.186;0.276;2023-04-08T02:20:58;102026.00;;;14.02;63.32
64739;BME280;51175;51.186;0.276;2023-04-08T02:21:37;102028.88;;;14.00;63.32
64739;BME280;51175;51.186;0.276;2023-04-08T02:22:20;102031.53;;;14.00;63.33
64739;BME280;51175;51.186;0.276;2023-04-08T02:23:09;102030.72;;;14.00;63.43
64739;BME280;51175;51.186;0.276;2023-04-08T02:23:47;102030.97;;;13.98;63.34
64739;BME280;51175;51.186;0.276;2023-04-08T02:24:19;102032.00;;;13.97;63.29
64739;BME280;51175;51.186;0.276;2023-04-08T02:24:52;102036.53;;;13.97;63.63
64739;BME280;51175;51.186;0.276;2023-04-08T02:25:24;102030.16;;;13.98;63.67
64739;BME280;51175;51.186;0.276;2023-04-08T02:25:55;102029.34;;;13.97;63.29
64739;BME280;51175;51.186;0.276;2023-04-08T02:26:26;102032.00;;;13.97;63.61
64739;BME280;51175;51.186;0.276;2023-04-08T02:26:57;102035.72;;;13.96;63.46
64739;BME280;51175;51.186;0.276;2023-04-08T02:27:28;102039.19;;;13.97;63.51
64739;BME280;51175;51.186;0.276;2023-04-08T02:27:59;102039.19;;;13.97;63.26
64739;BME280;51175;51.186;0.276;2023-04-08T02:28:33;102034.66;;;13.97;63.54
64739;BME280;51175;51.186;0.276;2023-04-08T02:29:04;102033.06;;;13.96;63.29
64739;BME280;51175;51.186;0.276;2023-04-08T02:29:39;102030.41;;;13.96;63.45
64739;BME280;51175;51.186;0.276;2023-04-08T02:30:11;102035.72;;;13.96;63.64
64739;BME280;51175;51.186;0.276;2023-04-08T02:30:45;102034.91;;;13.96;63.37
64739;BME280;51175;51.186;0.276;2023-04-08T02:31:17;102035.97;;;13.95;63.34
64739;BME280;51175;51.186;0.276;2023-04-08T02:31:49;102038.63;;;13.95;63.42
64739;BME280;51175;51.186;0.276;2023-04-08T02:32:22;102029.84;;;13.94;63.68
64739;BME280;51175;51.186;0.276;2023-04-08T02:32:53;102037.81;;;13.94;63.38
64739;BME280;51175;51.186;0.276;2023-04-08T02:33:24;102037.03;;;13.94;63.58
64739;BME280;51175;51.186;0.276;2023-04-08T02:33:56;102037.81;;;13.94;63.53
64739;BME280;51175;51.186;0.276;2023-04-08T02:34:28;102038.63;;;13.95;63.36
64739;BME280;51175;51.186;0.276;2023-04-08T02:35:00;102035.97;;;13.95;63.49
64739;BME280;51175;51.186;0.276;2023-04-08T02:35:33;102035.97;;;13.95;63.38
64739;BME280;51175;51.186;0.276;2023-04-08T02:36:05;102038.88;;;13.93;63.32
64739;BME280;51175;51.186;0.276;2023-04-08T02:36:36;102040.72;;;13.93;63.35
64739;BME280;51175;51.186;0.276;2023-04-08T02:37:08;102038.06;;;13.93;63.51
64739;BME280;51175;51.186;0.276;2023-04-08T02:37:38;102044.19;;;13.93;63.38
64739;BME280;51175;51.186;0.276;2023-04-08T02:38:09;102038.88;;;13.93;63.39
64739;BME280;51175;51.186;0.276;2023-04-08T02:38:40;102030.09;;;13.93;63.43
64739;BME280;51175;51.186;0.276;2023-04-08T02:39:10;102031.94;;;13.92;63.32
64739;BME280;51175;51.186;0.276;2023-04-08T02:39:41;102035.41;;;13.93;63.34
64739;BME280;51175;51.186;0.276;2023-04-08T02:40:27;102033.78;;;13.92;63.10
64739;BME280;51175;51.186;0.276;2023-04-08T02:40:58;102031.94;;;13.92;63.39
64739;BME280;51175;51.186;0.276;2023-04-08T02:41:28;102036.44;;;13.92;63.12
64739;BME280;51175;51.186;0.276;2023-04-08T02:41:59;102040.94;;;13.91;63.38
64739;BME280;51175;51.186;0.276;2023-04-08T02:42:30;102039.94;;;13.92;63.22
64739;BME280;51175;51.186;0.276;2023-04-08T02:43:00;102048.13;;;13.90;63.27
64739;BME280;51175;51.186;0.276;2023-04-08T02:43:30;102044.41;;;13.92;63.17
64739;BME280;51175;51.186;0.276;2023-04-08T02:44:01;102040.16;;;13.90;63.17
64739;BME280;51175;51.186;0.276;2023-04-08T02:44:31;102047.31;;;13.90;63.29
64739;BME280;51175;51.186;0.276;2023-04-08T02:45:02;102037.50;;;13.90;63.16
64739;BME280;51175;51.186;0.276;2023-04-08T02:45:42;102045.47;;;13.90;63.28
64739;BME280;51175;51.186;0.276;2023-04-08T02:46:13;102040.41;;;13.89;63.39
64739;BME280;51175;51.186;0.276;2023-04-08T02:46:43;102044.66;;;13.90;63.10
64739;BME280;51175;51.186;0.276;2023-04-08T02:47:14;102043.06;;;13.89;63.27
64739;BME280;51175;51.186;0.276;2023-04-08T02:47:44;102043.06;;;13.89;63.23
64739;BME280;51175;51.186;0.276;2023-04-08T02:48:15;102041.19;;;13.89;63.38
64739;BME280;51175;51.186;0.276;2023-04-08T02:48:46;102043.84;;;13.89;63.37
64739;BME280;51175;51.186;0.276;2023-04-08T02:49:16;102044.91;;;13.88;63.28
64739;BME280;51175;51.186;0.276;2023-04-08T02:49:46;102045.72;;;13.89;63.06
64739;BME280;51175;51.186;0.276;2023-04-08T02:50:17;102053.69;;;13.89;63.18
64739;BME280;51175;51.186;0.276;2023-04-08T02:50:47;102049.41;;;13.88;63.09
64739;BME280;51175;51.186;0.276;2023-04-08T02:51:17;102051.28;;;13.87;63.12
64739;BME280;51175;51.186;0.276;2023-04-08T02:51:48;102054.97;;;13.86;63.16
64739;BME280;51175;51.186;0.276;2023-04-08T02:52:18;102047.00;;;13.86;63.11
64739;BME280;51175;51.186;0.276;2023-04-08T02:52:49;102054.97;;;13.86;63.05
64739;BME280;51175;51.186;0.276;2023-04-08T02:53:19;102057.63;;;13.86;63.35
64739;BME280;51175;51.186;0.276;2023-04-08T02:53:49;102057.84;;;13.85;63.35
64739;BME280;51175;51.186;0.276;2023-04-08T02:54:20;102056.03;;;13.85;63.24